createdAt,value
2022-09-06T00:00:51.920Z,18.05
2022-09-06T00:05:56.068Z,18.03
2022-09-06T00:11:00.865Z,18.03
2022-09-06T00:16:02.556Z,18.05
2022-09-06T00:21:04.776Z,18.05
2022-09-06T00:26:08.940Z,18.01
2022-09-06T00:31:11.336Z,18.01
2022-09-06T00:36:15.361Z,18.01
2022-09-06T00:41:19.530Z,17.97
2022-09-06T00:46:23.740Z,17.93
2022-09-06T00:51:27.838Z,17.90
2022-09-06T00:56:32.010Z,17.92
2022-09-06T01:01:36.298Z,18.04
2022-09-06T01:06:40.315Z,18.07
2022-09-06T01:11:44.460Z,18.12
2022-09-06T01:16:48.630Z,18.13
2022-09-06T01:21:52.776Z,18.15
2022-09-06T01:26:56.932Z,18.57
2022-09-06T01:32:01.080Z,18.89
2022-09-06T01:37:10.375Z,18.98
2022-09-06T01:42:09.411Z,19.23
2022-09-06T01:47:13.591Z,19.53
2022-09-06T01:52:17.730Z,19.73
2022-09-06T01:57:21.897Z,19.84
2022-09-06T02:02:26.106Z,19.79
2022-09-06T02:07:30.217Z,19.77
2022-09-06T02:12:34.372Z,19.80
2022-09-06T02:17:36.628Z,19.82
2022-09-06T02:22:40.806Z,19.80
2022-09-06T02:27:44.991Z,19.81
2022-09-06T02:32:49.114Z,19.79
2022-09-06T02:37:53.277Z,19.73
2022-09-06T02:42:57.439Z,19.67
2022-09-06T02:48:01.622Z,19.66
2022-09-06T02:53:05.780Z,19.62
2022-09-06T02:58:09.912Z,19.57
2022-09-06T03:03:14.077Z,19.53
2022-09-06T03:08:18.241Z,19.47
2022-09-06T03:13:22.421Z,19.44
2022-09-06T03:18:26.744Z,19.40
2022-09-06T03:28:34.909Z,19.37
2022-09-06T03:33:39.035Z,19.25
2022-09-06T03:38:43.200Z,19.18
2022-09-06T03:43:47.371Z,19.16
2022-09-06T03:48:51.539Z,19.09
2022-09-06T03:53:55.654Z,19.04
2022-09-06T03:58:59.852Z,18.96
2022-09-06T04:04:04.017Z,18.92
2022-09-06T04:09:06.281Z,18.84
2022-09-06T04:14:10.416Z,18.80
2022-09-06T04:19:14.585Z,18.76
2022-09-06T04:24:18.767Z,18.65
2022-09-06T04:29:22.914Z,18.58
2022-09-06T04:34:27.116Z,18.51
2022-09-06T04:39:31.253Z,18.54
2022-09-06T04:44:35.411Z,18.50
2022-09-06T04:49:39.548Z,18.48
2022-09-06T04:54:43.739Z,18.54
2022-09-06T04:59:47.875Z,18.54
2022-09-06T05:04:52.002Z,18.46
2022-09-06T05:09:58.208Z,18.41
2022-09-06T05:15:00.449Z,18.44
2022-09-06T05:20:04.507Z,18.34
2022-09-06T05:25:08.690Z,18.31
2022-09-06T05:30:12.816Z,18.29
2022-09-06T05:35:17.000Z,18.35
2022-09-06T05:40:21.142Z,18.45
2022-09-06T05:45:25.333Z,18.45
2022-09-06T05:50:29.462Z,18.48
2022-09-06T05:55:31.727Z,18.57
2022-09-06T06:00:35.889Z,18.52
2022-09-06T06:05:38.133Z,18.37
2022-09-06T06:10:42.316Z,18.44
2022-09-06T06:15:44.601Z,18.61
2022-09-06T06:20:48.737Z,18.73
2022-09-06T06:25:52.897Z,18.97
2022-09-06T06:30:57.062Z,19.11
2022-09-06T06:36:01.261Z,19.20
2022-09-06T06:41:07.003Z,19.37
2022-09-06T06:46:09.619Z,19.63
2022-09-06T06:51:13.692Z,19.87
2022-09-06T06:56:17.847Z,20.12
2022-09-06T07:01:22.117Z,20.31
2022-09-06T07:11:30.315Z,20.87
2022-09-06T07:16:34.525Z,21.07
2022-09-06T07:21:38.896Z,21.40
2022-09-06T07:26:42.976Z,21.56
2022-09-06T07:32:11.643Z,21.80
2022-09-06T07:36:51.103Z,21.99
2022-09-06T07:41:55.273Z,22.22
2022-09-06T07:57:07.757Z,22.97
2022-09-06T08:02:11.947Z,23.16
2022-09-06T08:07:40.296Z,23.35
2022-09-06T08:12:18.351Z,23.57
2022-09-06T08:17:22.497Z,23.81
2022-09-06T08:22:24.760Z,24.08
2022-09-06T08:27:28.917Z,24.23
2022-09-06T08:32:33.108Z,24.33
2022-09-06T08:37:37.278Z,24.51
2022-09-06T08:42:41.408Z,24.67
2022-09-06T08:47:45.607Z,24.89
2022-09-06T08:53:06.485Z,25.00
2022-09-06T08:57:53.904Z,25.04
2022-09-06T09:02:58.044Z,25.27
2022-09-06T09:08:02.193Z,25.38
2022-09-06T09:13:06.541Z,25.48
2022-09-06T09:18:10.512Z,25.67
2022-09-06T09:23:14.698Z,25.76
2022-09-06T09:28:18.831Z,25.84
2022-09-06T09:33:23.126Z,25.97
2022-09-06T09:38:27.149Z,26.24
2022-09-06T09:43:31.337Z,26.24
2022-09-06T09:48:35.473Z,26.27
2022-09-06T09:53:39.663Z,26.41
2022-09-06T09:58:43.799Z,26.39
2022-09-06T10:08:50.226Z,26.73
2022-09-06T10:13:54.386Z,26.89
2022-09-06T10:18:58.585Z,26.94
2022-09-06T10:24:28.336Z,26.99
2022-09-06T10:29:06.827Z,26.99
2022-09-06T10:34:10.995Z,27.20
2022-09-06T10:39:15.155Z,27.44
2022-09-06T10:44:19.353Z,27.53
2022-09-06T10:49:23.498Z,27.61
2022-09-06T10:54:27.643Z,27.70
2022-09-06T11:09:40.137Z,28.28
2022-09-06T11:14:44.309Z,28.29
2022-09-06T11:19:48.424Z,28.39
2022-09-06T11:24:52.630Z,28.31
2022-09-06T11:29:56.772Z,28.52
2022-09-06T11:35:00.981Z,28.69
2022-09-06T11:40:30.752Z,28.77
2022-09-06T11:45:09.261Z,28.93
2022-09-06T11:50:13.430Z,29.19
2022-09-06T11:55:17.264Z,29.35
2022-09-06T12:00:19.837Z,29.50
2022-09-06T12:05:23.992Z,29.57
2022-09-06T12:10:28.165Z,29.79
2022-09-06T12:15:32.305Z,29.56
2022-09-06T12:20:36.482Z,29.72
2022-09-06T12:25:40.600Z,29.85
2022-09-06T12:30:44.809Z,30.02
2022-09-06T12:35:56.377Z,30.14
2022-09-06T12:40:53.088Z,30.08
2022-09-06T12:45:57.291Z,30.06
2022-09-06T12:51:01.421Z,30.06
2022-09-06T12:56:05.567Z,30.10
2022-09-06T13:01:09.954Z,30.22
2022-09-06T13:06:13.908Z,30.23
2022-09-06T13:11:18.052Z,30.47
2022-09-06T13:16:22.361Z,30.57
2022-09-06T13:21:26.373Z,30.49
2022-09-06T13:26:30.525Z,30.43
2022-09-06T13:31:34.838Z,30.50
2022-09-06T13:36:38.863Z,30.50
2022-09-06T13:41:41.138Z,30.20
2022-09-06T13:46:45.343Z,30.38
2022-09-06T13:51:47.544Z,30.63
2022-09-06T13:56:51.702Z,30.72
2022-09-06T14:02:00.072Z,30.87
2022-09-06T14:06:58.142Z,30.82
2022-09-06T14:12:00.424Z,30.85
2022-09-06T14:22:08.887Z,30.71
2022-09-06T14:27:12.898Z,30.89
2022-09-06T14:32:20.521Z,30.81
2022-09-06T14:37:21.203Z,30.81
2022-09-06T14:42:25.349Z,30.76
2022-09-06T14:47:29.569Z,30.76
2022-09-06T14:52:33.688Z,30.77
2022-09-06T14:57:37.818Z,30.67
2022-09-06T15:02:42.050Z,30.79
2022-09-06T15:07:46.175Z,30.94
2022-09-06T15:12:50.297Z,30.91
2022-09-06T15:17:54.463Z,30.93
2022-09-06T15:23:21.601Z,30.87
2022-09-06T15:28:02.773Z,30.76
2022-09-06T15:33:06.955Z,30.49
2022-09-06T15:38:11.393Z,30.27
2022-09-06T15:43:15.266Z,30.14
2022-09-06T15:48:17.553Z,29.91
2022-09-06T15:53:21.690Z,30.12
2022-09-06T15:58:25.849Z,31.10
2022-09-06T16:03:28.295Z,32.64
2022-09-06T16:08:32.319Z,34.47
2022-09-06T16:13:34.566Z,35.24
2022-09-06T16:18:38.722Z,35.63
2022-09-06T16:23:42.854Z,35.90
2022-09-06T16:28:47.020Z,36.43
2022-09-06T16:33:51.189Z,36.73
2022-09-06T16:38:55.357Z,36.17
2022-09-06T16:43:59.549Z,34.36
2022-09-06T16:49:03.707Z,33.11
2022-09-06T16:54:07.811Z,31.39
2022-09-06T16:59:12.010Z,30.36
2022-09-06T17:04:16.124Z,29.63
2022-09-06T17:09:20.347Z,29.20
2022-09-06T17:14:24.483Z,28.73
2022-09-06T17:19:28.622Z,28.05
2022-09-06T17:24:32.795Z,27.18
2022-09-06T17:29:36.979Z,26.59
2022-09-06T17:34:41.125Z,26.18
2022-09-06T17:39:45.310Z,25.78
2022-09-06T17:44:49.411Z,25.48
2022-09-06T17:49:53.587Z,25.12
2022-09-06T17:54:57.740Z,24.74
2022-09-06T18:00:00.020Z,24.46
2022-09-06T18:05:04.263Z,24.14
2022-09-06T18:10:06.475Z,23.88
2022-09-06T18:15:10.605Z,23.69
2022-09-06T18:20:14.760Z,23.59
2022-09-06T18:25:18.924Z,23.59
2022-09-06T18:30:23.083Z,23.46
2022-09-06T18:35:27.217Z,23.30
2022-09-06T18:40:31.358Z,23.13
2022-09-06T18:45:35.561Z,22.85
2022-09-06T18:50:39.722Z,22.82
2022-09-06T18:55:43.880Z,22.81
2022-09-06T19:00:48.066Z,22.59
2022-09-06T19:05:52.215Z,22.38
2022-09-06T19:10:56.401Z,22.23
2022-09-06T19:16:00.549Z,22.23
2022-09-06T19:21:04.644Z,22.04
2022-09-06T19:26:10.015Z,21.94
2022-09-06T19:31:13.034Z,21.68
2022-09-06T19:36:17.122Z,21.64
2022-09-06T19:41:21.293Z,21.56
2022-09-06T19:46:25.557Z,21.51
2022-09-06T19:51:29.661Z,21.44
2022-09-06T19:56:31.895Z,21.24
2022-09-06T20:06:40.217Z,21.16
2022-09-06T20:11:42.479Z,21.00
2022-09-06T20:16:46.698Z,20.95
2022-09-06T20:26:54.965Z,21.13
2022-09-06T20:31:59.157Z,21.13
2022-09-06T20:37:03.247Z,21.36
2022-09-06T20:47:11.667Z,21.46
2022-09-06T20:52:15.742Z,21.43
2022-09-06T20:57:19.919Z,21.36
2022-09-06T21:02:24.164Z,21.39
2022-09-06T21:07:28.251Z,21.29
2022-09-06T21:12:32.408Z,21.22
2022-09-06T21:17:34.674Z,21.05
2022-09-06T21:22:45.795Z,20.87
2022-09-06T21:27:57.002Z,20.80
2022-09-06T21:33:08.332Z,20.83
2022-09-06T21:38:19.303Z,20.90
2022-09-06T21:43:30.529Z,21.47
2022-09-06T21:48:40.069Z,21.68
2022-09-06T21:53:43.941Z,21.91
2022-09-06T21:58:48.114Z,22.07
2022-09-06T22:03:52.290Z,22.18
2022-09-06T22:08:56.424Z,22.24
2022-09-06T22:14:00.578Z,22.35
2022-09-06T22:19:04.724Z,22.49
2022-09-06T22:24:10.852Z,22.37
2022-09-06T22:29:13.041Z,22.37
2022-09-06T22:34:17.178Z,22.33
2022-09-06T22:39:21.347Z,22.24
2022-09-06T22:44:25.481Z,22.03
2022-09-06T22:49:29.651Z,21.89
2022-09-06T22:54:33.834Z,21.83
2022-09-06T22:59:37.990Z,21.77
2022-09-06T23:04:42.145Z,21.74
2022-09-06T23:09:46.321Z,21.73
2022-09-06T23:14:50.443Z,21.75
2022-09-06T23:19:54.613Z,21.77
2022-09-06T23:24:58.776Z,21.76
2022-09-06T23:30:02.971Z,21.73
2022-09-06T23:35:05.207Z,21.60
2022-09-06T23:40:09.465Z,21.67
2022-09-06T23:45:11.614Z,21.78
2022-09-06T23:50:15.817Z,21.74
2022-09-06T23:55:19.954Z,21.97
